M I D A S
Marine Information and Data Acquisition System
Tripno 1102 of the Zeeleeuw from 2006-05-10 06:48:14 to 2006-05-10 14:04:03
Back to CruiseResearch ActivitiesStationsMapUnderway DataData graphs

EquipmentUnitsComments
TimeDGPSUTC
LatitudeDGPSDM.mWGS84
LongitudeDGPSDM.mWGS84
SpeedMeteo Stationm/sRelative wind speed
DirectionMeteo StationdegRelative wind direction
TemperatureMeteo Stationdeg CelciusAir temperature
PressureMeteo StationPaAtmospheric pressure
HumidityMeteo Station%Relative humidity
Missing or incorrect values are displayed as -999
Metereological data collected by the RV Zeeleeuw from 2006-05-10 06:44:12 to 2006-05-10 14:21:31
                                                                                    Next 1000 lines
Time Latitude Longitude Speed Direction Temperature Pressure Humidity
2006-05-10 06:44:22 51°13.601 2°56.093 -999 141 10.1 101730 100
2006-05-10 06:44:26 51°13.601 2°56.091 -999 144 10.1 101730 100
2006-05-10 06:44:32 51°13.602 2°56.087 -999 147 10.1 101730 100
2006-05-10 06:44:37 51°13.603 2°56.082 -999 151 10.1 101730 100
2006-05-10 06:44:42 51°13.604 2°56.078 -999 156 10.1 101730 100
2006-05-10 06:44:46 51°13.605 2°56.074 -999 156 10.2 101730 100
2006-05-10 06:44:52 51°13.606 2°56.067 -999 156 10.2 101730 100
2006-05-10 06:44:57 51°13.608 2°56.061 -999 155 10.2 101740 100
2006-05-10 06:45:02 51°13.609 2°56.054 -999 155 10.2 101740 100
2006-05-10 06:45:07 51°13.611 2°56.047 -999 154 10.2 101730 100
2006-05-10 06:45:12 51°13.613 2°56.039 -999 156 10.2 101730 100
2006-05-10 06:45:17 51°13.614 2°56.031 -999 155 10.2 101730 100
2006-05-10 06:45:22 51°13.616 2°56.022 -999 155 10.2 101730 100
2006-05-10 06:45:26 51°13.618 2°56.015 -999 164 10.2 101740 100
2006-05-10 06:45:32 51°13.62 2°56.004 -999 165 10.2 101740 100
2006-05-10 06:45:37 51°13.621 2°55.996 -999 165 10.2 101730 100
2006-05-10 06:45:42 51°13.623 2°55.987 -999 165 10.2 101730 100
2006-05-10 06:45:47 51°13.626 2°55.978 -999 160 10.2 101740 100
2006-05-10 06:45:52 51°13.628 2°55.969 -999 163 10.2 101740 100
2006-05-10 06:45:57 51°13.63 2°55.959 -999 158 10.2 101730 100
2006-05-10 06:46:02 51°13.633 2°55.95 -999 156 10.2 101730 100
2006-05-10 06:46:06 51°13.635 2°55.943 -999 156 10.2 101740 100
2006-05-10 06:46:12 51°13.639 2°55.931 -999 159 10.2 101740 100
2006-05-10 06:46:17 51°13.642 2°55.922 -999 160 10.2 101740 100
2006-05-10 06:46:22 51°13.646 2°55.913 -999 161 10.2 101740 100
2006-05-10 06:46:27 51°13.649 2°55.903 -999 162 10.2 101740 100
2006-05-10 06:46:32 51°13.653 2°55.894 -999 162 10.2 101740 100
2006-05-10 06:46:37 51°13.657 2°55.885 -999 173 10.2 101740 100
2006-05-10 06:46:42 51°13.66 2°55.875 -999 169 10.2 101740 100
2006-05-10 06:46:47 51°13.665 2°55.866 -999 169 10.2 101740 100
2006-05-10 06:46:53 51°13.669 2°55.855 -999 168 10.2 101740 100
2006-05-10 06:46:57 51°13.672 2°55.848 -999 163 10.2 101740 100
2006-05-10 06:47:02 51°13.677 2°55.838 -999 163 10.2 101740 100
2006-05-10 06:47:07 51°13.681 2°55.828 -999 163 10.2 101740 100
2006-05-10 06:47:13 51°13.685 2°55.817 -999 165 10.2 101740 100
2006-05-10 06:47:17 51°13.688 2°55.81 -999 159 10.2 101730 100
2006-05-10 06:47:22 51°13.692 2°55.801 -999 159 10.2 101730 100
2006-05-10 06:47:26 51°13.694 2°55.794 -999 158 10.2 101740 100
2006-05-10 06:47:31 51°13.698 2°55.785 -999 162 10.2 101740 100
2006-05-10 06:47:37 51°13.701 2°55.775 -999 156 10.2 101740 100
2006-05-10 06:47:42 51°13.704 2°55.767 -999 160 10.2 101740 100
2006-05-10 06:47:47 51°13.706 2°55.759 -999 154 10.2 101740 100
2006-05-10 06:47:52 51°13.708 2°55.752 -999 152 10.2 101740 100
2006-05-10 06:47:57 51°13.71 2°55.745 -999 153 10.2 101730 100
2006-05-10 06:48:02 51°13.711 2°55.738 -999 153 10.2 101730 100
2006-05-10 06:48:07 51°13.712 2°55.733 -999 144 10.2 101730 100
2006-05-10 06:48:12 51°13.713 2°55.728 -999 152 10.2 101730 100
2006-05-10 06:48:17 51°13.714 2°55.724 -999 137 10.2 101730 100
2006-05-10 06:48:22 51°13.715 2°55.722 -999 137 10.2 101730 100
2006-05-10 06:48:26 51°13.715 2°55.721 -999 142 10.2 101730 100
2006-05-10 06:48:32 51°13.716 2°55.721 -999 142 10.2 101730 100
2006-05-10 06:48:37 51°13.716 2°55.722 -999 136 10.2 101730 100
2006-05-10 06:48:42 51°13.717 2°55.724 -999 135 10.2 101730 100
2006-05-10 06:48:46 51°13.719 2°55.726 -999 140 10.2 101740 100
2006-05-10 06:48:52 51°13.72 2°55.729 -999 142 10.2 101740 100
2006-05-10 06:48:57 51°13.722 2°55.732 -999 146 10.2 101740 100
2006-05-10 06:49:02 51°13.723 2°55.734 -999 147 10.2 101740 100
2006-05-10 06:49:06 51°13.724 2°55.735 -999 148 10.2 101730 100
2006-05-10 06:49:12 51°13.725 2°55.737 -999 153 10.2 101730 100
2006-05-10 06:49:17 51°13.726 2°55.738 -999 172 10.2 101730 100
2006-05-10 06:49:22 51°13.726 2°55.738 -999 171 10.2 101730 100
2006-05-10 06:49:26 51°13.726 2°55.738 -999 171 10.2 101730 100
2006-05-10 06:49:31 51°13.725 2°55.737 -999 173 10.2 101730 100
2006-05-10 06:49:37 51°13.724 2°55.735 -999 179 10.2 101730 100
2006-05-10 06:49:42 51°13.722 2°55.734 -999 189 10.2 101730 100
2006-05-10 06:49:47 51°13.72 2°55.732 -999 194 10.2 101740 100
2006-05-10 06:49:52 51°13.719 2°55.73 -999 202 10.2 101740 100
2006-05-10 06:49:57 51°13.717 2°55.728 -999 181 10.3 101740 100
2006-05-10 06:50:02 51°13.715 2°55.726 -999 189 10.3 101740 100
2006-05-10 06:50:07 51°13.714 2°55.724 -999 186 10.3 101740 100
2006-05-10 06:50:12 51°13.713 2°55.723 -999 180 10.3 101740 100
2006-05-10 06:50:17 51°13.712 2°55.722 -999 179 10.3 101740 100
2006-05-10 06:50:22 51°13.712 2°55.722 -999 176 10.3 101740 100
2006-05-10 06:50:26 51°13.712 2°55.722 -999 175 10.3 101740 100
2006-05-10 06:50:32 51°13.713 2°55.722 -999 176 10.3 101740 100
2006-05-10 06:50:37 51°13.714 2°55.722 -999 176 10.4 101740 100
2006-05-10 06:50:42 51°13.716 2°55.722 -999 176 10.4 101740 100
2006-05-10 06:50:47 51°13.719 2°55.722 -999 176 10.3 101740 100
2006-05-10 06:50:52 51°13.723 2°55.721 -999 181 10.3 101740 100
2006-05-10 06:50:57 51°13.728 2°55.719 -999 285 10.4 101740 100
2006-05-10 06:51:02 51°13.733 2°55.717 -999 325 10.4 101740 100
2006-05-10 06:51:06 51°13.737 2°55.714 -999 346 10.4 101740 100
2006-05-10 06:51:12 51°13.744 2°55.709 -999 341 10.4 101740 100
2006-05-10 06:51:17 51°13.75 2°55.704 -999 343 10.4 101740 100
2006-05-10 06:51:22 51°13.757 2°55.699 -999 342 10.4 101740 100
2006-05-10 06:51:27 51°13.765 2°55.693 -999 349 10.4 101740 100
2006-05-10 06:51:32 51°13.772 2°55.687 -999 350 10.4 101740 100
2006-05-10 06:51:37 51°13.78 2°55.681 -999 355 10.4 101740 100
2006-05-10 06:51:42 51°13.788 2°55.675 -999 357 10.4 101740 100
2006-05-10 06:51:47 51°13.797 2°55.668 -999 -999 10.4 101740 100
2006-05-10 06:51:52 51°13.805 2°55.661 -999 1 10.4 101740 100
2006-05-10 06:51:57 51°13.814 2°55.655 -999 357 10.4 101740 100
2006-05-10 06:52:02 51°13.823 2°55.647 -999 357 10.4 101740 100
2006-05-10 06:52:06 51°13.83 2°55.641 -999 2 10.4 101740 100
2006-05-10 06:52:12 51°13.842 2°55.632 -999 358 10.4 101740 100
2006-05-10 06:52:17 51°13.852 2°55.624 -999 356 10.4 101730 100
2006-05-10 06:52:22 51°13.862 2°55.616 -999 358 10.4 101730 100
2006-05-10 06:52:28 51°13.874 2°55.606 -999 1 10.5 101740 100
2006-05-10 06:52:32 51°13.883 2°55.599 -999 355 10.5 101740 100
2006-05-10 06:52:37 51°13.893 2°55.591 -999 360 10.5 101740 100
2006-05-10 06:52:42 51°13.904 2°55.582 -999 -999 10.5 101740 100
2006-05-10 06:52:46 51°13.913 2°55.575 -999 357 10.5 101740 100
2006-05-10 06:52:51 51°13.924 2°55.567 -999 2 10.5 101740 100
2006-05-10 06:52:56 51°13.935 2°55.559 -999 8 10.5 101730 100
2006-05-10 06:53:02 51°13.949 2°55.549 -999 356 10.5 101730 100
2006-05-10 06:53:07 51°13.961 2°55.54 -999 3 10.5 101740 100
2006-05-10 06:53:12 51°13.972 2°55.532 -999 2 10.5 101740 100
2006-05-10 06:53:17 51°13.984 2°55.524 -999 359 10.5 101740 100
2006-05-10 06:53:22 51°13.996 2°55.515 -999 354 10.5 101740 100
2006-05-10 06:53:26 51°14.005 2°55.508 -999 360 10.5 101740 100
2006-05-10 06:53:32 51°14.019 2°55.498 -999 -999 10.5 101740 100
2006-05-10 06:53:37 51°14.03 2°55.489 -999 359 10.5 101740 100
2006-05-10 06:53:42 51°14.041 2°55.481 -999 358 10.5 101740 100
2006-05-10 06:53:45 51°14.048 2°55.475 -999 360 10.6 101730 100
2006-05-10 06:53:52 51°14.064 2°55.463 -999 6 10.6 101730 100
2006-05-10 06:53:57 51°14.076 2°55.454 -999 2 10.6 101730 100
2006-05-10 06:54:02 51°14.088 2°55.445 -999 -999 10.6 101730 100
2006-05-10 06:54:07 51°14.1 2°55.436 -999 356 10.6 101730 100
2006-05-10 06:54:12 51°14.112 2°55.427 -999 1 10.6 101730 100
2006-05-10 06:54:17 51°14.123 2°55.418 -999 358 10.6 101730 100
2006-05-10 06:54:22 51°14.134 2°55.408 -999 5 10.6 101730 100
2006-05-10 06:54:26 51°14.143 2°55.4 -999 2 10.7 101740 100
2006-05-10 06:54:31 51°14.154 2°55.389 -999 -999 10.7 101740 100
2006-05-10 06:54:37 51°14.167 2°55.377 -999 2 10.7 101740 100
2006-05-10 06:54:42 51°14.178 2°55.367 -999 2 10.7 101740 100
2006-05-10 06:54:46 51°14.187 2°55.358 -999 6 10.7 101730 100
2006-05-10 06:54:52 51°14.201 2°55.345 -999 354 10.7 101730 100
2006-05-10 06:54:56 51°14.209 2°55.335 -999 4 10.7 101730 100
2006-05-10 06:55:02 51°14.221 2°55.32 -999 353 10.7 101730 100
2006-05-10 06:55:06 51°14.229 2°55.31 -999 354 10.8 101730 100
2006-05-10 06:55:13 51°14.243 2°55.29 -999 354 10.8 101730 100
2006-05-10 06:55:17 51°14.25 2°55.279 -999 347 10.8 101730 100
2006-05-10 06:55:22 51°14.258 2°55.263 -999 350 10.8 101730 100
2006-05-10 06:55:26 51°14.265 2°55.251 -999 348 10.9 101730 100
2006-05-10 06:55:32 51°14.275 2°55.233 -999 -999 10.9 101730 100
2006-05-10 06:55:37 51°14.283 2°55.217 -999 347 10.9 101730 100
2006-05-10 06:55:42 51°14.292 2°55.202 -999 351 10.9 101730 100
2006-05-10 06:55:46 51°14.299 2°55.189 -999 352 11 101730 100
2006-05-10 06:55:52 51°14.309 2°55.171 -999 348 11 101730 100
2006-05-10 06:55:56 51°14.315 2°55.158 -999 348 11 101730 100
2006-05-10 06:56:02 51°14.325 2°55.139 -999 352 11 101730 100
2006-05-10 06:56:07 51°14.334 2°55.123 -999 355 11 101730 100
2006-05-10 06:56:12 51°14.343 2°55.107 -999 347 11 101730 100
2006-05-10 06:56:17 51°14.352 2°55.091 -999 344 11 101730 100
2006-05-10 06:56:22 51°14.361 2°55.075 -999 342 11 101730 100
2006-05-10 06:56:26 51°14.368 2°55.061 -999 343 11 101730 100
2006-05-10 06:56:32 51°14.377 2°55.041 -999 343 11 101730 100
2006-05-10 06:56:36 51°14.384 2°55.027 -999 343 11 101730 100
2006-05-10 06:56:42 51°14.394 2°55.006 -999 346 11 101730 100
2006-05-10 06:56:47 51°14.402 2°54.987 -999 342 11 101730 100
2006-05-10 06:56:52 51°14.411 2°54.969 -999 343 11 101730 100
2006-05-10 06:56:57 51°14.418 2°54.951 -999 342 11 101730 100
2006-05-10 06:57:02 51°14.426 2°54.93 -999 346 11 101730 100
2006-05-10 06:57:06 51°14.432 2°54.914 -999 346 11.1 101730 100
2006-05-10 06:57:12 51°14.441 2°54.887 -999 348 11.1 101730 100
2006-05-10 06:57:17 51°14.447 2°54.865 -999 346 11 101730 100
2006-05-10 06:57:21 51°14.452 2°54.847 -999 350 11 101730 100
2006-05-10 06:57:25 51°14.457 2°54.828 -999 349 11 101720 100
2006-05-10 06:57:31 51°14.464 2°54.797 -999 349 11 101720 100
2006-05-10 06:57:37 51°14.47 2°54.767 -999 349 11 101730 100
2006-05-10 06:57:42 51°14.476 2°54.741 -999 350 11 101730 100
2006-05-10 06:57:46 51°14.48 2°54.72 -999 349 11 101720 100
2006-05-10 06:57:52 51°14.487 2°54.689 -999 349 11 101720 100
2006-05-10 06:57:56 51°14.492 2°54.668 -999 349 11 101730 100
2006-05-10 06:58:02 51°14.5 2°54.636 -999 348 11 101730 100
2006-05-10 06:58:07 51°14.507 2°54.61 -999 348 11 101730 100
2006-05-10 06:58:12 51°14.514 2°54.585 -999 347 10.9 101730 100
2006-05-10 06:58:17 51°14.523 2°54.559 -999 346 11 101730 100
2006-05-10 06:58:22 51°14.531 2°54.535 -999 349 11 101730 100
2006-05-10 06:58:26 51°14.537 2°54.515 -999 348 10.9 101720 100
2006-05-10 06:58:30 51°14.544 2°54.495 -999 348 10.9 101720 100
2006-05-10 06:58:37 51°14.557 2°54.461 -999 346 10.9 101730 100
2006-05-10 06:58:42 51°14.567 2°54.437 -999 348 10.9 101730 100
2006-05-10 06:58:46 51°14.575 2°54.418 -999 347 10.9 101730 100
2006-05-10 06:58:52 51°14.587 2°54.389 -999 346 10.9 101730 100
2006-05-10 06:58:57 51°14.597 2°54.366 -999 349 10.9 101730 100
2006-05-10 06:59:02 51°14.607 2°54.342 -999 349 10.9 101730 100
2006-05-10 06:59:06 51°14.615 2°54.323 -999 349 10.9 101730 100
2006-05-10 06:59:12 51°14.626 2°54.294 -999 348 10.9 101730 100
2006-05-10 06:59:17 51°14.635 2°54.27 -999 347 10.9 101730 100
2006-05-10 06:59:22 51°14.645 2°54.245 -999 348 10.9 101730 100
2006-05-10 06:59:26 51°14.652 2°54.225 -999 348 10.9 101730 100
2006-05-10 06:59:32 51°14.662 2°54.196 -999 352 10.9 101730 100
2006-05-10 06:59:37 51°14.671 2°54.171 -999 351 10.9 101730 100
2006-05-10 06:59:42 51°14.68 2°54.146 -999 353 10.9 101730 100
2006-05-10 06:59:47 51°14.689 2°54.121 -999 348 10.9 101720 100
2006-05-10 06:59:51 51°14.696 2°54.101 -999 351 10.9 101720 100
2006-05-10 06:59:57 51°14.708 2°54.074 -999 347 11 101730 100
2006-05-10 07:00:02 51°14.719 2°54.052 -999 346 11 101730 100
2006-05-10 07:00:07 51°14.73 2°54.031 -999 346 11 101730 100
2006-05-10 07:00:12 51°14.743 2°54.01 -999 344 11 101730 100
2006-05-10 07:00:17 51°14.755 2°53.991 -999 346 11 101730 100
2006-05-10 07:00:22 51°14.767 2°53.972 -999 346 11 101730 100
2006-05-10 07:00:27 51°14.78 2°53.952 -999 342 11 101730 100
2006-05-10 07:00:31 51°14.79 2°53.938 -999 343 11 101730 100
2006-05-10 07:00:37 51°14.805 2°53.915 -999 345 11 101720 100
2006-05-10 07:00:42 51°14.818 2°53.897 -999 346 11 101720 100
2006-05-10 07:00:46 51°14.828 2°53.882 -999 347 11 101730 100
2006-05-10 07:00:52 51°14.844 2°53.86 -999 345 11 101730 100
2006-05-10 07:00:56 51°14.854 2°53.845 -999 345 11 101730 100
2006-05-10 07:01:02 51°14.869 2°53.823 -999 344 11 101730 100
2006-05-10 07:01:06 51°14.88 2°53.808 -999 347 11 101730 100
2006-05-10 07:01:12 51°14.895 2°53.785 -999 345 11 101730 100
2006-05-10 07:01:16 51°14.904 2°53.769 -999 346 11 101730 100
2006-05-10 07:01:22 51°14.919 2°53.745 -999 346 11 101730 100
2006-05-10 07:01:26 51°14.928 2°53.729 -999 345 11 101730 100
2006-05-10 07:01:32 51°14.942 2°53.704 -999 345 11 101730 100
2006-05-10 07:01:36 51°14.951 2°53.688 -999 346 11 101730 100
2006-05-10 07:01:42 51°14.966 2°53.663 -999 345 11 101730 100
2006-05-10 07:01:47 51°14.978 2°53.642 -999 345 11 101730 100
2006-05-10 07:01:52 51°14.99 2°53.623 -999 340 11 101730 100
2006-05-10 07:01:56 51°15 2°53.608 -999 341 11 101730 100
2006-05-10 07:02:02 51°15.016 2°53.586 -999 343 11 101730 100
2006-05-10 07:02:07 51°15.029 2°53.569 -999 344 11 101730 100
2006-05-10 07:02:12 51°15.043 2°53.552 -999 341 11 101730 100
2006-05-10 07:02:17 51°15.057 2°53.535 -999 347 11 101740 100
2006-05-10 07:02:22 51°15.07 2°53.519 -999 343 11 101740 100
2006-05-10 07:02:26 51°15.081 2°53.505 -999 344 11 101740 100
2006-05-10 07:02:30 51°15.092 2°53.492 -999 345 11 101730 100
2006-05-10 07:02:37 51°15.112 2°53.468 -999 343 11 101730 100
2006-05-10 07:02:42 51°15.125 2°53.451 -999 345 11 101730 100
2006-05-10 07:02:46 51°15.135 2°53.437 -999 345 11 101730 100
2006-05-10 07:02:52 51°15.151 2°53.414 -999 344 11.1 101730 100
2006-05-10 07:02:57 51°15.163 2°53.395 -999 345 11.1 101730 100
2006-05-10 07:03:02 51°15.176 2°53.375 -999 343 11.1 101730 100
2006-05-10 07:03:06 51°15.186 2°53.36 -999 343 11.1 101740 100
2006-05-10 07:03:12 51°15.201 2°53.336 -999 343 11.1 101740 100
2006-05-10 07:03:17 51°15.214 2°53.316 -999 344 11.1 101730 100
2006-05-10 07:03:22 51°15.226 2°53.297 -999 343 11.1 101730 100
2006-05-10 07:03:27 51°15.239 2°53.277 -999 345 11.1 101730 100
2006-05-10 07:03:32 51°15.252 2°53.258 -999 342 11.1 101730 100
2006-05-10 07:03:36 51°15.262 2°53.243 -999 342 11.1 101730 100
2006-05-10 07:03:42 51°15.278 2°53.22 -999 341 11.1 101730 100
2006-05-10 07:03:47 51°15.291 2°53.203 -999 345 11.1 101730 100
2006-05-10 07:03:52 51°15.304 2°53.185 -999 345 11.1 101730 100
2006-05-10 07:03:56 51°15.315 2°53.17 -999 348 11.1 101730 100
2006-05-10 07:04:00 51°15.326 2°53.156 -999 343 11.1 101730 100
2006-05-10 07:04:05 51°15.339 2°53.139 -999 343 11.1 101730 100
2006-05-10 07:04:10 51°15.352 2°53.121 -999 344 11.1 101730 100
2006-05-10 07:04:17 51°15.371 2°53.097 -999 343 11.1 101730 100
2006-05-10 07:04:22 51°15.385 2°53.079 -999 345 11.1 101730 100
2006-05-10 07:04:27 51°15.399 2°53.06 -999 344 11.2 101730 100
2006-05-10 07:04:31 51°15.409 2°53.046 -999 -999 11.2 101730 100
2006-05-10 07:04:37 51°15.425 2°53.023 -999 344 11.2 101730 100
2006-05-10 07:04:42 51°15.437 2°53.003 -999 345 11.2 101730 100
2006-05-10 07:04:46 51°15.447 2°52.987 -999 342 11.2 101730 100
2006-05-10 07:04:50 51°15.457 2°52.972 -999 344 11.2 101730 100
2006-05-10 07:04:56 51°15.471 2°52.947 -999 346 11.2 101730 100
2006-05-10 07:05:01 51°15.483 2°52.927 -999 345 11.2 101730 100
2006-05-10 07:05:07 51°15.497 2°52.901 -999 343 11.2 101730 100
2006-05-10 07:05:12 51°15.508 2°52.88 -999 344 11.2 101730 100
2006-05-10 07:05:16 51°15.518 2°52.862 -999 344 11.2 101730 100
2006-05-10 07:05:22 51°15.53 2°52.835 -999 347 11.2 101730 100
2006-05-10 07:05:27 51°15.54 2°52.811 -999 344 11.2 101730 100
2006-05-10 07:05:32 51°15.549 2°52.787 -999 346 11.2 101730 100
2006-05-10 07:05:37 51°15.558 2°52.762 -999 347 11.3 101730 100
2006-05-10 07:05:42 51°15.566 2°52.735 -999 346 11.3 101730 100
2006-05-10 07:05:47 51°15.573 2°52.709 -999 350 11.3 101730 100
2006-05-10 07:05:52 51°15.579 2°52.682 -999 348 11.3 101730 100
2006-05-10 07:05:56 51°15.583 2°52.661 -999 350 11.3 101730 100
2006-05-10 07:06:02 51°15.589 2°52.627 -999 351 11.3 101730 100
2006-05-10 07:06:07 51°15.594 2°52.598 -999 351 11.3 101730 100
2006-05-10 07:06:12 51°15.597 2°52.57 -999 353 11.3 101730 100
2006-05-10 07:06:16 51°15.6 2°52.546 -999 350 11.3 101730 100
2006-05-10 07:06:20 51°15.603 2°52.523 -999 351 11.3 101730 100
2006-05-10 07:06:26 51°15.605 2°52.489 -999 351 11.3 101730 100
2006-05-10 07:06:32 51°15.608 2°52.454 -999 352 11.3 101730 100
2006-05-10 07:06:36 51°15.61 2°52.43 -999 352 11.4 101720 100
2006-05-10 07:06:42 51°15.612 2°52.395 -999 351 11.4 101720 100
2006-05-10 07:06:47 51°15.615 2°52.365 -999 353 11.4 101720 100
2006-05-10 07:06:52 51°15.617 2°52.335 -999 352 11.4 101720 100
2006-05-10 07:06:56 51°15.619 2°52.312 -999 351 11.4 101730 100
2006-05-10 07:07:02 51°15.622 2°52.277 -999 352 11.4 101730 100
2006-05-10 07:07:07 51°15.625 2°52.248 -999 353 11.4 101730 100
2006-05-10 07:07:12 51°15.628 2°52.218 -999 352 11.4 101730 100
2006-05-10 07:07:17 51°15.632 2°52.189 -999 353 11.4 101730 100
2006-05-10 07:07:22 51°15.635 2°52.16 -999 351 11.4 101730 100
2006-05-10 07:07:26 51°15.638 2°52.136 -999 349 11.4 101730 100
2006-05-10 07:07:30 51°15.64 2°52.113 -999 353 11.4 101730 100
2006-05-10 07:07:37 51°15.645 2°52.071 -999 353 11.4 101720 100
2006-05-10 07:07:42 51°15.648 2°52.042 -999 355 11.4 101720 100
2006-05-10 07:07:46 51°15.65 2°52.019 -999 352 11.4 101730 100
2006-05-10 07:07:52 51°15.654 2°51.984 -999 352 11.4 101730 100
2006-05-10 07:07:57 51°15.658 2°51.954 -999 352 11.4 101730 100
2006-05-10 07:08:02 51°15.66 2°51.925 -999 352 11.4 101730 100
2006-05-10 07:08:06 51°15.663 2°51.901 -999 352 11.5 101720 100
2006-05-10 07:08:12 51°15.667 2°51.866 -999 354 11.5 101720 100
2006-05-10 07:08:17 51°15.671 2°51.837 -999 353 11.5 101730 100
2006-05-10 07:08:22 51°15.673 2°51.808 -999 352 11.5 101730 100
2006-05-10 07:08:26 51°15.676 2°51.785 -999 353 11.5 101730 100
2006-05-10 07:08:32 51°15.68 2°51.749 -999 352 11.5 101730 100
2006-05-10 07:08:37 51°15.683 2°51.72 -999 353 11.5 101720 100
2006-05-10 07:08:42 51°15.686 2°51.691 -999 354 11.5 101720 100
2006-05-10 07:08:46 51°15.688 2°51.668 -999 355 11.5 101730 100
2006-05-10 07:08:52 51°15.692 2°51.632 -999 354 11.5 101730 100
2006-05-10 07:08:57 51°15.695 2°51.602 -999 354 11.5 101730 100
2006-05-10 07:09:02 51°15.698 2°51.574 -999 353 11.5 101730 100
2006-05-10 07:09:07 51°15.701 2°51.544 -999 353 11.5 101720 100
2006-05-10 07:09:12 51°15.705 2°51.515 -999 355 11.5 101720 100
2006-05-10 07:09:16 51°15.707 2°51.492 -999 354 11.5 101730 100
2006-05-10 07:09:22 51°15.711 2°51.456 -999 355 11.5 101730 100
2006-05-10 07:09:27 51°15.714 2°51.427 -999 355 11.5 101730 100
2006-05-10 07:09:32 51°15.717 2°51.398 -999 -999 11.5 101730 100
2006-05-10 07:09:37 51°15.72 2°51.369 -999 354 11.6 101720 100
2006-05-10 07:09:42 51°15.723 2°51.339 -999 355 11.6 101720 100
2006-05-10 07:09:47 51°15.726 2°51.31 -999 354 11.6 101720 100
2006-05-10 07:09:52 51°15.729 2°51.281 -999 356 11.6 101720 100
2006-05-10 07:09:57 51°15.733 2°51.252 -999 355 11.6 101720 100
2006-05-10 07:10:02 51°15.736 2°51.223 -999 356 11.6 101720 100
2006-05-10 07:10:06 51°15.739 2°51.199 -999 355 11.6 101720 100
2006-05-10 07:10:12 51°15.743 2°51.165 -999 356 11.6 101720 100
2006-05-10 07:10:16 51°15.745 2°51.142 -999 354 11.6 101730 100
2006-05-10 07:10:22 51°15.75 2°51.107 -999 355 11.6 101730 100
2006-05-10 07:10:26 51°15.752 2°51.083 -999 357 11.6 101730 100
2006-05-10 07:10:32 51°15.756 2°51.048 -999 358 11.6 101730 100
2006-05-10 07:10:36 51°15.758 2°51.025 -999 357 11.6 101730 100
2006-05-10 07:10:42 51°15.761 2°50.99 -999 358 11.6 101730 100
2006-05-10 07:10:47 51°15.764 2°50.96 -999 357 11.6 101730 100
2006-05-10 07:10:52 51°15.768 2°50.932 -999 357 11.6 101730 100
2006-05-10 07:10:56 51°15.77 2°50.909 -999 356 11.6 101740 100
2006-05-10 07:11:02 51°15.773 2°50.874 -999 357 11.6 101740 100
2006-05-10 07:11:07 51°15.776 2°50.845 -999 358 11.6 101730 100
2006-05-10 07:11:12 51°15.779 2°50.817 -999 356 11.6 101730 100
2006-05-10 07:11:17 51°15.782 2°50.789 -999 360 11.7 101730 100
2006-05-10 07:11:22 51°15.785 2°50.76 -999 360 11.7 101730 100
2006-05-10 07:11:26 51°15.787 2°50.737 -999 360 11.7 101730 100
2006-05-10 07:11:30 51°15.789 2°50.715 -999 359 11.7 101730 100
2006-05-10 07:11:37 51°15.793 2°50.676 -999 2 11.7 101730 100
2006-05-10 07:11:42 51°15.796 2°50.648 -999 3 11.7 101730 100
2006-05-10 07:11:47 51°15.799 2°50.619 -999 2 11.7 101730 100
2006-05-10 07:11:52 51°15.802 2°50.591 -999 4 11.7 101730 100
2006-05-10 07:11:56 51°15.805 2°50.569 -999 5 11.7 101740 100
2006-05-10 07:12:02 51°15.809 2°50.535 -999 5 11.7 101740 100
2006-05-10 07:12:06 51°15.811 2°50.513 -999 5 11.7 101730 100
2006-05-10 07:12:12 51°15.815 2°50.479 -999 6 11.7 101730 100
2006-05-10 07:12:17 51°15.818 2°50.451 -999 6 11.7 101740 100
2006-05-10 07:12:21 51°15.82 2°50.429 -999 6 11.7 101740 100
2006-05-10 07:12:27 51°15.823 2°50.396 -999 7 11.7 101740 100
2006-05-10 07:12:32 51°15.826 2°50.367 -999 -999 11.7 101740 100
2006-05-10 07:12:37 51°15.829 2°50.34 -999 6 11.7 101740 100
2006-05-10 07:12:42 51°15.832 2°50.311 -999 6 11.7 101740 100
2006-05-10 07:12:47 51°15.834 2°50.283 -999 6 11.7 101740 100
2006-05-10 07:12:52 51°15.838 2°50.255 -999 8 11.7 101740 100
2006-05-10 07:12:56 51°15.84 2°50.233 -999 6 11.7 101740 100
2006-05-10 07:13:02 51°15.844 2°50.199 -999 8 11.7 101740 100
2006-05-10 07:13:07 51°15.846 2°50.171 -999 7 11.7 101740 100
2006-05-10 07:13:12 51°15.849 2°50.143 -999 4 11.7 101740 100
2006-05-10 07:13:17 51°15.852 2°50.115 -999 10 11.7 101730 100
2006-05-10 07:13:22 51°15.855 2°50.087 -999 9 11.7 101730 100
2006-05-10 07:13:27 51°15.858 2°50.059 -999 7 11.7 101740 100
2006-05-10 07:13:31 51°15.86 2°50.037 -999 8 11.7 101740 100
2006-05-10 07:13:37 51°15.863 2°50.004 -999 7 11.6 101740 100
2006-05-10 07:13:42 51°15.867 2°49.976 -999 7 11.6 101740 100
2006-05-10 07:13:46 51°15.869 2°49.954 -999 9 11.6 101730 100
2006-05-10 07:13:52 51°15.873 2°49.92 -999 8 11.6 101730 100
2006-05-10 07:13:56 51°15.874 2°49.898 -999 9 11.6 101740 100
2006-05-10 07:14:02 51°15.877 2°49.864 -999 8 11.6 101740 100
2006-05-10 07:14:06 51°15.88 2°49.841 -999 7 11.6 101740 100
2006-05-10 07:14:12 51°15.883 2°49.807 -999 7 11.6 101740 100
2006-05-10 07:14:16 51°15.885 2°49.785 -999 8 11.6 101730 100
2006-05-10 07:14:22 51°15.888 2°49.751 -999 9 11.6 101730 100
2006-05-10 07:14:26 51°15.891 2°49.728 -999 6 11.6 101730 100
2006-05-10 07:14:32 51°15.894 2°49.694 -999 8 11.6 101730 100
2006-05-10 07:14:36 51°15.897 2°49.672 -999 7 11.6 101730 100
2006-05-10 07:14:42 51°15.9 2°49.638 -999 7 11.6 101730 100
2006-05-10 07:14:46 51°15.903 2°49.615 -999 7 11.6 101730 100
2006-05-10 07:14:52 51°15.907 2°49.581 -999 7 11.6 101730 100
2006-05-10 07:14:56 51°15.909 2°49.558 -999 11 11.6 101740 100
2006-05-10 07:15:02 51°15.912 2°49.524 -999 8 11.6 101740 100
2006-05-10 07:15:06 51°15.914 2°49.501 -999 9 11.6 101740 100
2006-05-10 07:15:12 51°15.917 2°49.467 -999 7 11.6 101740 100
2006-05-10 07:15:16 51°15.919 2°49.443 -999 6 11.6 101730 100
2006-05-10 07:15:22 51°15.922 2°49.408 -999 8 11.6 101730 100
2006-05-10 07:15:27 51°15.925 2°49.379 -999 7 11.6 101740 100
2006-05-10 07:15:32 51°15.927 2°49.351 -999 6 11.6 101740 100
2006-05-10 07:15:36 51°15.93 2°49.328 -999 6 11.5 101740 100
2006-05-10 07:15:42 51°15.934 2°49.294 -999 7 11.5 101740 100
2006-05-10 07:15:47 51°15.937 2°49.264 -999 8 11.5 101740 100
2006-05-10 07:15:52 51°15.94 2°49.236 -999 7 11.5 101740 100
2006-05-10 07:15:57 51°15.943 2°49.207 -999 8 11.5 101740 100
2006-05-10 07:16:02 51°15.946 2°49.179 -999 7 11.5 101740 100
2006-05-10 07:16:06 51°15.948 2°49.156 -999 10 11.5 101740 100
2006-05-10 07:16:10 51°15.951 2°49.133 -999 7 11.5 101740 100
2006-05-10 07:16:17 51°15.954 2°49.092 -999 7 11.5 101740 100
2006-05-10 07:16:22 51°15.957 2°49.063 -999 8 11.5 101740 100
2006-05-10 07:16:26 51°15.959 2°49.04 -999 8 11.5 101740 100
2006-05-10 07:16:32 51°15.962 2°49.005 -999 9 11.5 101740 100
2006-05-10 07:16:36 51°15.964 2°48.982 -999 8 11.5 101740 100
2006-05-10 07:16:42 51°15.968 2°48.947 -999 9 11.5 101740 100
2006-05-10 07:16:46 51°15.97 2°48.924 -999 8 11.5 101740 100
2006-05-10 07:16:52 51°15.974 2°48.889 -999 9 11.5 101740 100
2006-05-10 07:16:56 51°15.976 2°48.866 -999 8 11.5 101740 100
2006-05-10 07:17:02 51°15.979 2°48.831 -999 8 11.5 101740 100
2006-05-10 07:17:06 51°15.982 2°48.808 -999 8 11.5 101740 100
2006-05-10 07:17:12 51°15.986 2°48.773 -999 7 11.5 101740 100
2006-05-10 07:17:16 51°15.988 2°48.751 -999 8 11.5 101740 100
2006-05-10 07:17:22 51°15.992 2°48.716 -999 7 11.5 101740 100
2006-05-10 07:17:26 51°15.995 2°48.693 -999 9 11.5 101740 100
2006-05-10 07:17:32 51°15.999 2°48.658 -999 9 11.5 101740 100
2006-05-10 07:17:36 51°16.002 2°48.635 -999 8 11.5 101740 100
2006-05-10 07:17:42 51°16.005 2°48.6 -999 10 11.5 101740 100
2006-05-10 07:17:46 51°16.007 2°48.576 -999 8 11.4 101740 100
2006-05-10 07:17:52 51°16.01 2°48.54 -999 9 11.4 101740 100
2006-05-10 07:17:57 51°16.012 2°48.511 -999 9 11.5 101740 100
2006-05-10 07:18:02 51°16.015 2°48.482 -999 13 11.5 101740 100
2006-05-10 07:18:05 51°16.017 2°48.465 -999 10 11.4 101730 100
2006-05-10 07:18:12 51°16.021 2°48.424 -999 9 11.4 101730 100
2006-05-10 07:18:16 51°16.023 2°48.401 -999 8 11.5 101740 100
2006-05-10 07:18:22 51°16.026 2°48.364 -999 9 11.5 101740 100
2006-05-10 07:18:27 51°16.029 2°48.336 -999 10 11.5 101740 100
2006-05-10 07:18:32 51°16.032 2°48.308 -999 9 11.4 101730 100
2006-05-10 07:18:37 51°16.035 2°48.278 -999 11 11.5 101740 100
2006-05-10 07:18:42 51°16.037 2°48.249 -999 11 11.5 101740 100
2006-05-10 07:18:47 51°16.038 2°48.219 -999 11 11.4 101740 100
2006-05-10 07:18:52 51°16.038 2°48.19 -999 13 11.4 101740 100
2006-05-10 07:18:56 51°16.038 2°48.166 -999 11 11.4 101740 100
2006-05-10 07:19:02 51°16.036 2°48.131 -999 16 11.4 101740 100
2006-05-10 07:19:07 51°16.033 2°48.101 -999 14 11.4 101740 100
2006-05-10 07:19:12 51°16.03 2°48.072 -999 16 11.4 101740 100
2006-05-10 07:19:17 51°16.028 2°48.042 -999 6 11.4 101740 100
2006-05-10 07:19:22 51°16.028 2°48.012 -999 14 11.4 101740 100
2006-05-10 07:19:27 51°16.028 2°47.983 -999 7 11.4 101740 100
2006-05-10 07:19:31 51°16.03 2°47.96 -999 10 11.4 101740 100
2006-05-10 07:19:37 51°16.034 2°47.925 -999 10 11.4 101740 100
2006-05-10 07:19:42 51°16.038 2°47.897 -999 9 11.4 101740 100
2006-05-10 07:19:46 51°16.041 2°47.875 -999 7 11.4 101740 100
2006-05-10 07:19:52 51°16.047 2°47.841 -999 7 11.4 101740 100
2006-05-10 07:19:57 51°16.052 2°47.812 -999 10 11.4 101740 100
2006-05-10 07:20:02 51°16.056 2°47.785 -999 11 11.4 101740 100
2006-05-10 07:20:06 51°16.059 2°47.763 -999 10 11.4 101740 100
2006-05-10 07:20:12 51°16.064 2°47.728 -999 8 11.4 101740 100
2006-05-10 07:20:17 51°16.068 2°47.7 -999 10 11.4 101740 100
2006-05-10 07:20:22 51°16.072 2°47.671 -999 9 11.4 101740 100
2006-05-10 07:20:26 51°16.076 2°47.648 -999 11 11.4 101740 100
2006-05-10 07:20:32 51°16.081 2°47.613 -999 9 11.4 101740 100
2006-05-10 07:20:37 51°16.085 2°47.585 -999 11 11.4 101740 100
2006-05-10 07:20:42 51°16.089 2°47.556 -999 7 11.4 101740 100
2006-05-10 07:20:46 51°16.092 2°47.534 -999 8 11.4 101740 100
2006-05-10 07:20:52 51°16.098 2°47.5 -999 9 11.4 101740 100
2006-05-10 07:20:57 51°16.103 2°47.471 -999 9 11.4 101740 100
2006-05-10 07:21:02 51°16.108 2°47.444 -999 9 11.4 101740 100
2006-05-10 07:21:06 51°16.111 2°47.422 -999 9 11.5 101750 100
2006-05-10 07:21:12 51°16.116 2°47.388 -999 11 11.5 101750 100
2006-05-10 07:21:17 51°16.121 2°47.359 -999 10 11.4 101740 100
2006-05-10 07:21:22 51°16.126 2°47.331 -999 12 11.4 101740 100
2006-05-10 07:21:27 51°16.13 2°47.303 -999 8 11.4 101750 100
2006-05-10 07:21:32 51°16.135 2°47.275 -999 10 11.4 101750 100
2006-05-10 07:21:37 51°16.139 2°47.246 -999 10 11.4 101740 100
2006-05-10 07:21:42 51°16.143 2°47.218 -999 10 11.4 101740 100
2006-05-10 07:21:47 51°16.147 2°47.19 -999 9 11.4 101740 100
2006-05-10 07:21:51 51°16.151 2°47.166 -999 10 11.4 101740 100
2006-05-10 07:21:57 51°16.156 2°47.132 -999 9 11.5 101750 100
2006-05-10 07:22:02 51°16.16 2°47.105 -999 10 11.5 101750 100
2006-05-10 07:22:07 51°16.164 2°47.076 -999 10 11.5 101750 100
2006-05-10 07:22:12 51°16.168 2°47.048 -999 11 11.5 101750 100
2006-05-10 07:22:17 51°16.172 2°47.02 -999 9 11.5 101750 100
2006-05-10 07:22:22 51°16.176 2°46.992 -999 13 11.5 101750 100
2006-05-10 07:22:27 51°16.18 2°46.963 -999 11 11.5 101740 100
2006-05-10 07:22:31 51°16.183 2°46.941 -999 10 11.5 101740 100
2006-05-10 07:22:37 51°16.188 2°46.906 -999 10 11.5 101740 100
2006-05-10 07:22:42 51°16.192 2°46.878 -999 13 11.5 101740 100
2006-05-10 07:22:46 51°16.196 2°46.856 -999 11 11.5 101740 100
2006-05-10 07:22:52 51°16.201 2°46.822 -999 10 11.5 101740 100
2006-05-10 07:22:57 51°16.205 2°46.794 -999 11 11.5 101750 100
2006-05-10 07:23:02 51°16.21 2°46.766 -999 10 11.5 101750 100
2006-05-10 07:23:06 51°16.213 2°46.744 -999 9 11.5 101740 100
2006-05-10 07:23:12 51°16.218 2°46.71 -999 11 11.5 101740 100
2006-05-10 07:23:17 51°16.222 2°46.683 -999 11 11.5 101750 100
2006-05-10 07:23:22 51°16.227 2°46.654 -999 12 11.5 101750 100
2006-05-10 07:23:26 51°16.23 2°46.632 -999 9 11.5 101750 100
2006-05-10 07:23:32 51°16.234 2°46.599 -999 13 11.5 101750 100
2006-05-10 07:23:37 51°16.239 2°46.57 -999 12 11.5 101750 100
2006-05-10 07:23:42 51°16.242 2°46.542 -999 12 11.5 101750 100
2006-05-10 07:23:46 51°16.246 2°46.52 -999 10 11.5 101740 100
2006-05-10 07:23:52 51°16.251 2°46.487 -999 13 11.5 101740 100
2006-05-10 07:23:57 51°16.255 2°46.459 -999 11 11.5 101750 100
2006-05-10 07:24:02 51°16.259 2°46.431 -999 12 11.5 101750 100
2006-05-10 07:24:07 51°16.263 2°46.403 -999 11 11.5 101740 100
2006-05-10 07:24:12 51°16.266 2°46.376 -999 11 11.5 101740 100
2006-05-10 07:24:17 51°16.27 2°46.347 -999 11 11.5 101750 100
2006-05-10 07:24:22 51°16.274 2°46.32 -999 12 11.5 101750 100
2006-05-10 07:24:25 51°16.276 2°46.304 -999 12 11.5 101750 100
2006-05-10 07:24:32 51°16.282 2°46.264 -999 12 11.5 101750 100
2006-05-10 07:24:36 51°16.286 2°46.242 -999 12 11.5 101750 100
2006-05-10 07:24:42 51°16.291 2°46.209 -999 12 11.5 101750 100
2006-05-10 07:24:46 51°16.294 2°46.186 -999 13 11.5 101750 100
2006-05-10 07:24:52 51°16.299 2°46.153 -999 14 11.5 101750 100
2006-05-10 07:24:56 51°16.302 2°46.131 -999 13 11.5 101750 100
2006-05-10 07:25:02 51°16.307 2°46.098 -999 11 11.5 101750 100
2006-05-10 07:25:06 51°16.31 2°46.076 -999 13 11.5 101750 100
2006-05-10 07:25:12 51°16.315 2°46.042 -999 13 11.5 101750 100
2006-05-10 07:25:16 51°16.319 2°46.02 -999 14 11.5 101740 100
2006-05-10 07:25:22 51°16.324 2°45.987 -999 12 11.5 101740 100
2006-05-10 07:25:27 51°16.329 2°45.959 -999 14 11.5 101750 100
2006-05-10 07:25:32 51°16.332 2°45.93 -999 11 11.5 101750 100
2006-05-10 07:25:36 51°16.336 2°45.908 -999 13 11.5 101750 100
2006-05-10 07:25:42 51°16.342 2°45.876 -999 13 11.5 101750 100
2006-05-10 07:25:47 51°16.346 2°45.848 -999 15 11.5 101750 100
2006-05-10 07:25:52 51°16.35 2°45.82 -999 12 11.5 101750 100
2006-05-10 07:25:57 51°16.356 2°45.793 -999 13 11.5 101750 100
2006-05-10 07:26:02 51°16.361 2°45.766 -999 11 11.5 101750 100
2006-05-10 07:26:06 51°16.366 2°45.744 -999 10 11.5 101750 100
2006-05-10 07:26:10 51°16.372 2°45.723 -999 10 11.5 101750 100
2006-05-10 07:26:17 51°16.381 2°45.686 -999 11 11.5 101750 100
2006-05-10 07:26:22 51°16.388 2°45.66 -999 10 11.5 101750 100
2006-05-10 07:26:26 51°16.393 2°45.639 -999 9 11.5 101750 100
2006-05-10 07:26:32 51°16.402 2°45.608 -999 10 11.5 101750 100
2006-05-10 07:26:37 51°16.409 2°45.581 -999 10 11.5 101750 100
2006-05-10 07:26:42 51°16.415 2°45.555 -999 7 11.5 101750 100
2006-05-10 07:26:46 51°16.42 2°45.535 -999 10 11.5 101750 100
2006-05-10 07:26:52 51°16.429 2°45.502 -999 10 11.5 101750 100
2006-05-10 07:26:57 51°16.435 2°45.476 -999 10 11.5 101750 100
2006-05-10 07:27:02 51°16.442 2°45.449 -999 10 11.5 101750 100
2006-05-10 07:27:07 51°16.449 2°45.423 -999 9 11.5 101750 100
2006-05-10 07:27:12 51°16.456 2°45.397 -999 10 11.5 101750 100
2006-05-10 07:27:17 51°16.464 2°45.372 -999 7 11.5 101740 100
2006-05-10 07:27:22 51°16.472 2°45.348 -999 5 11.5 101740 100
2006-05-10 07:27:25 51°16.478 2°45.333 -999 6 11.5 101750 100
2006-05-10 07:27:32 51°16.491 2°45.3 -999 7 11.5 101750 100
2006-05-10 07:27:36 51°16.498 2°45.281 -999 6 11.5 101750 100
2006-05-10 07:27:42 51°16.509 2°45.252 -999 6 11.5 101750 100
2006-05-10 07:27:46 51°16.517 2°45.232 -999 6 11.5 101750 100
2006-05-10 07:27:52 51°16.528 2°45.204 -999 7 11.5 101750 100
2006-05-10 07:27:56 51°16.535 2°45.185 -999 5 11.5 101750 100
2006-05-10 07:28:02 51°16.545 2°45.156 -999 6 11.5 101750 100
2006-05-10 07:28:06 51°16.553 2°45.136 -999 5 11.5 101750 100
2006-05-10 07:28:12 51°16.563 2°45.106 -999 7 11.5 101750 100
2006-05-10 07:28:17 51°16.573 2°45.082 -999 5 11.4 101750 100
2006-05-10 07:28:22 51°16.582 2°45.059 -999 5 11.4 101750 100
2006-05-10 07:28:25 51°16.588 2°45.044 -999 6 11.5 101750 100
2006-05-10 07:28:32 51°16.601 2°45.011 -999 7 11.5 101750 100
2006-05-10 07:28:36 51°16.608 2°44.992 -999 6 11.5 101750 100
2006-05-10 07:28:42 51°16.62 2°44.963 -999 7 11.5 101750 100
2006-05-10 07:28:47 51°16.629 2°44.939 -999 5 11.4 101750 100
2006-05-10 07:28:52 51°16.638 2°44.916 -999 7 11.4 101750 100
2006-05-10 07:28:57 51°16.647 2°44.891 -999 6 11.4 101740 100
2006-05-10 07:29:02 51°16.656 2°44.867 -999 6 11.4 101740 100
2006-05-10 07:29:06 51°16.664 2°44.848 -999 6 11.4 101750 100
2006-05-10 07:29:10 51°16.671 2°44.829 -999 7 11.4 101750 100
2006-05-10 07:29:17 51°16.683 2°44.794 -999 5 11.4 101750 100
2006-05-10 07:29:22 51°16.693 2°44.77 -999 7 11.4 101750 100
2006-05-10 07:29:26 51°16.7 2°44.751 -999 5 11.4 101740 100
2006-05-10 07:29:32 51°16.711 2°44.722 -999 4 11.4 101740 100
2006-05-10 07:29:37 51°16.721 2°44.697 -999 7 11.4 101740 100
2006-05-10 07:29:42 51°16.73 2°44.673 -999 6 11.4 101740 100
2006-05-10 07:29:47 51°16.739 2°44.648 -999 6 11.4 101740 100
2006-05-10 07:29:51 51°16.746 2°44.628 -999 5 11.4 101740 100
2006-05-10 07:29:57 51°16.758 2°44.599 -999 8 11.4 101750 100
2006-05-10 07:30:02 51°16.767 2°44.575 -999 4 11.4 101750 100
2006-05-10 07:30:06 51°16.774 2°44.555 -999 7 11.4 101750 100
2006-05-10 07:30:12 51°16.785 2°44.526 -999 6 11.4 101750 100
2006-05-10 07:30:17 51°16.794 2°44.501 -999 7 11.4 101740 100
2006-05-10 07:30:22 51°16.803 2°44.476 -999 6 11.4 101740 100
2006-05-10 07:30:26 51°16.811 2°44.456 -999 6 11.4 101750 100
2006-05-10 07:30:32 51°16.821 2°44.425 -999 5 11.4 101750 100
2006-05-10 07:30:37 51°16.829 2°44.4 -999 4 11.4 101750 100
2006-05-10 07:30:42 51°16.839 2°44.375 -999 4 11.4 101750 100
2006-05-10 07:30:46 51°16.846 2°44.356 -999 5 11.4 101740 100
2006-05-10 07:30:52 51°16.857 2°44.326 -999 6 11.4 101740 100
2006-05-10 07:30:57 51°16.867 2°44.301 -999 4 11.4 101740 100
2006-05-10 07:31:02 51°16.875 2°44.276 -999 7 11.4 101740 100
2006-05-10 07:31:07 51°16.885 2°44.251 -999 6 11.4 101740 100
2006-05-10 07:31:12 51°16.893 2°44.226 -999 6 11.4 101740 100
2006-05-10 07:31:17 51°16.902 2°44.202 -999 6 11.4 101740 100
2006-05-10 07:31:22 51°16.912 2°44.176 -999 8 11.4 101740 100
2006-05-10 07:31:25 51°16.917 2°44.162 -999 4 11.4 101740 100
2006-05-10 07:31:32 51°16.93 2°44.126 -999 6 11.4 101740 100
2006-05-10 07:31:36 51°16.937 2°44.106 -999 4 11.4 101740 100
2006-05-10 07:31:42 51°16.948 2°44.076 -999 7 11.4 101740 100
2006-05-10 07:31:47 51°16.957 2°44.051 -999 6 11.4 101740 100
2006-05-10 07:31:52 51°16.966 2°44.025 -999 6 11.4 101740 100
2006-05-10 07:31:56 51°16.973 2°44.005 -999 6 11.4 101740 100
2006-05-10 07:32:02 51°16.984 2°43.976 -999 5 11.4 101740 100
2006-05-10 07:32:07 51°16.994 2°43.951 -999 6 11.4 101740 100
2006-05-10 07:32:12 51°17.002 2°43.926 -999 6 11.4 101740 100
2006-05-10 07:32:16 51°17.01 2°43.906 -999 6 11.4 101740 100
2006-05-10 07:32:22 51°17.021 2°43.876 -999 7 11.4 101740 100
2006-05-10 07:32:26 51°17.028 2°43.856 -999 5 11.4 101750 100
2006-05-10 07:32:32 51°17.039 2°43.826 -999 7 11.4 101750 100
2006-05-10 07:32:37 51°17.049 2°43.801 -999 7 11.3 101750 100
2006-05-10 07:32:42 51°17.058 2°43.776 -999 7 11.3 101750 100
2006-05-10 07:32:46 51°17.065 2°43.756 -999 5 11.4 101750 100
2006-05-10 07:32:52 51°17.077 2°43.728 -999 4 11.4 101750 100
2006-05-10 07:32:57 51°17.088 2°43.704 -999 6 11.4 101740 100
2006-05-10 07:33:02 51°17.099 2°43.682 -999 4 11.4 101740 100
2006-05-10 07:33:06 51°17.108 2°43.664 -999 4 11.3 101750 100
2006-05-10 07:33:12 51°17.121 2°43.639 -999 3 11.3 101750 100
2006-05-10 07:33:16 51°17.131 2°43.622 -999 3 11.3 101750 100
2006-05-10 07:33:22 51°17.145 2°43.596 -999 4 11.3 101750 100
2006-05-10 07:33:26 51°17.154 2°43.579 -999 5 11.3 101750 100
2006-05-10 07:33:30 51°17.164 2°43.562 -999 5 11.3 101750 100
2006-05-10 07:33:37 51°17.18 2°43.531 -999 6 11.3 101750 100
2006-05-10 07:33:42 51°17.191 2°43.51 -999 5 11.3 101750 100
2006-05-10 07:33:47 51°17.203 2°43.488 -999 4 11.3 101750 100
2006-05-10 07:33:52 51°17.214 2°43.467 -999 5 11.3 101750 100
2006-05-10 07:33:56 51°17.224 2°43.449 -999 4 11.3 101750 100
2006-05-10 07:34:02 51°17.238 2°43.424 -999 5 11.3 101750 100
2006-05-10 07:34:06 51°17.247 2°43.407 -999 5 11.3 101750 100
2006-05-10 07:34:10 51°17.257 2°43.389 -999 4 11.3 101750 100
2006-05-10 07:34:17 51°17.273 2°43.361 -999 4 11.3 101740 100
2006-05-10 07:34:21 51°17.282 2°43.344 -999 3 11.3 101740 100
2006-05-10 07:34:25 51°17.292 2°43.326 -999 4 11.3 101750 100
2006-05-10 07:34:32 51°17.308 2°43.297 -999 3 11.3 101750 100
2006-05-10 07:34:37 51°17.32 2°43.277 -999 6 11.3 101750 100
2006-05-10 07:34:42 51°17.331 2°43.255 -999 5 11.3 101750 100
2006-05-10 07:34:47 51°17.343 2°43.233 -999 4 11.3 101750 100
2006-05-10 07:34:52 51°17.354 2°43.212 -999 4 11.3 101750 100
2006-05-10 07:34:57 51°17.366 2°43.191 -999 6 11.3 101750 100
2006-05-10 07:35:02 51°17.378 2°43.17 -999 4 11.3 101750 100
2006-05-10 07:35:07 51°17.39 2°43.149 -999 5 11.3 101750 100
2006-05-10 07:35:12 51°17.402 2°43.129 -999 4 11.3 101750 100
2006-05-10 07:35:16 51°17.411 2°43.112 -999 8 11.3 101750 100
2006-05-10 07:35:20 51°17.421 2°43.096 -999 3 11.3 101750 100
2006-05-10 07:35:27 51°17.438 2°43.066 -999 5 11.3 101750 100
2006-05-10 07:35:32 51°17.449 2°43.045 -999 4 11.3 101750 100
2006-05-10 07:35:33 51°17.451 2°43.042 -999 2 11.3 101750 100
2006-05-10 07:35:41 51°17.47 2°43.009 -999 5 11.3 101750 100
2006-05-10 07:35:47 51°17.484 2°42.983 -999 5 11.3 101750 100
2006-05-10 07:35:52 51°17.496 2°42.963 -999 5 11.3 101750 100
2006-05-10 07:35:57 51°17.508 2°42.942 -999 4 11.3 101750 100
2006-05-10 07:36:02 51°17.52 2°42.922 -999 4 11.3 101750 100
2006-05-10 07:36:07 51°17.532 2°42.9 -999 5 11.3 101750 100
2006-05-10 07:36:12 51°17.543 2°42.88 -999 4 11.3 101750 100
2006-05-10 07:36:16 51°17.553 2°42.863 -999 5 11.3 101750 100
2006-05-10 07:36:22 51°17.568 2°42.838 -999 6 11.3 101750 100
2006-05-10 07:36:25 51°17.575 2°42.825 -999 5 11.3 101750 100
2006-05-10 07:36:32 51°17.592 2°42.796 -999 6 11.3 101750 100
2006-05-10 07:36:37 51°17.604 2°42.774 -999 7 11.3 101750 100
2006-05-10 07:36:42 51°17.615 2°42.753 -999 4 11.3 101750 100
2006-05-10 07:36:47 51°17.628 2°42.731 -999 5 11.3 101740 100
2006-05-10 07:36:52 51°17.64 2°42.71 -999 5 11.3 101740 100
2006-05-10 07:36:56 51°17.649 2°42.693 -999 5 11.3 101740 100
2006-05-10 07:37:02 51°17.664 2°42.667 -999 4 11.3 101740 100
2006-05-10 07:37:07 51°17.676 2°42.644 -999 3 11.3 101750 100
2006-05-10 07:37:12 51°17.688 2°42.623 -999 3 11.3 101750 100
2006-05-10 07:37:17 51°17.7 2°42.602 -999 4 11.3 101750 100
2006-05-10 07:37:22 51°17.712 2°42.579 -999 5 11.3 101750 100
2006-05-10 07:37:26 51°17.722 2°42.562 -999 4 11.3 101750 100
2006-05-10 07:37:32 51°17.736 2°42.538 -999 3 11.3 101750 100
2006-05-10 07:37:37 51°17.748 2°42.516 -999 4 11.3 101740 100
2006-05-10 07:37:42 51°17.761 2°42.494 -999 5 11.3 101740 100
2006-05-10 07:37:46 51°17.77 2°42.478 -999 5 11.3 101740 100
2006-05-10 07:37:52 51°17.785 2°42.451 -999 2 11.3 101740 100
2006-05-10 07:37:57 51°17.797 2°42.43 -999 3 11.3 101750 100
2006-05-10 07:38:02 51°17.809 2°42.408 -999 4 11.3 101750 100
2006-05-10 07:38:06 51°17.819 2°42.391 -999 4 11.3 101740 100
2006-05-10 07:38:12 51°17.833 2°42.365 -999 6 11.3 101740 100
2006-05-10 07:38:17 51°17.844 2°42.344 -999 4 11.3 101740 100
2006-05-10 07:38:22 51°17.857 2°42.322 -999 4 11.3 101740 100
2006-05-10 07:38:27 51°17.869 2°42.3 -999 5 11.3 101740 100
2006-05-10 07:38:32 51°17.88 2°42.279 -999 4 11.3 101740 100
2006-05-10 07:38:37 51°17.893 2°42.257 -999 4 11.3 101750 100
2006-05-10 07:38:42 51°17.904 2°42.236 -999 5 11.3 101750 100
2006-05-10 07:38:47 51°17.917 2°42.213 -999 5 11.3 101740 100
2006-05-10 07:38:51 51°17.925 2°42.195 -999 7 11.3 101740 100
2006-05-10 07:38:57 51°17.939 2°42.169 -999 6 11.3 101750 100
2006-05-10 07:39:02 51°17.95 2°42.145 -999 5 11.3 101750 100
2006-05-10 07:39:06 51°17.958 2°42.127 -999 6 11.3 101750 100
2006-05-10 07:39:12 51°17.972 2°42.099 -999 4 11.3 101750 100
2006-05-10 07:39:16 51°17.98 2°42.08 -999 7 11.3 101740 100
2006-05-10 07:39:22 51°17.993 2°42.051 -999 6 11.3 101740 100
2006-05-10 07:39:26 51°18.001 2°42.033 -999 7 11.3 101750 100
2006-05-10 07:39:32 51°18.015 2°42.004 -999 6 11.3 101750 100
2006-05-10 07:39:36 51°18.023 2°41.985 -999 7 11.3 101750 100
2006-05-10 07:39:42 51°18.036 2°41.957 -999 7 11.3 101750 100
2006-05-10 07:39:46 51°18.044 2°41.938 -999 6 11.3 101750 100
2006-05-10 07:39:52 51°18.058 2°41.91 -999 6 11.3 101750 100
2006-05-10 07:39:56 51°18.066 2°41.891 -999 5 11.3 101750 100
2006-05-10 07:40:02 51°18.079 2°41.863 -999 5 11.3 101750 100
2006-05-10 07:40:06 51°18.088 2°41.844 -999 6 11.2 101750 100
2006-05-10 07:40:12 51°18.101 2°41.816 -999 4 11.2 101750 100
2006-05-10 07:40:17 51°18.111 2°41.792 -999 6 11.2 101750 100
2006-05-10 07:40:22 51°18.122 2°41.769 -999 4 11.2 101750 100
2006-05-10 07:40:25 51°18.129 2°41.756 -999 4 11.2 101760 100
2006-05-10 07:40:32 51°18.144 2°41.723 -999 6 11.2 101760 100
2006-05-10 07:40:36 51°18.152 2°41.704 -999 7 11.2 101750 100
2006-05-10 07:40:42 51°18.165 2°41.675 -999 5 11.2 101750 100
2006-05-10 07:40:47 51°18.176 2°41.651 -999 5 11.2 101760 100
2006-05-10 07:40:52 51°18.186 2°41.627 -999 6 11.2 101760 100
2006-05-10 07:40:57 51°18.197 2°41.604 -999 6 11.2 101750 100
2006-05-10 07:41:02 51°18.208 2°41.58 -999 5 11.2 101750 100
2006-05-10 07:41:06 51°18.216 2°41.561 -999 5 11.2 101750 100
2006-05-10 07:41:10 51°18.225 2°41.542 -999 6 11.2 101750 100
2006-05-10 07:41:17 51°18.24 2°41.508 -999 5 11.2 101740 100
2006-05-10 07:41:22 51°18.25 2°41.485 -999 6 11.2 101740 100
2006-05-10 07:41:26 51°18.259 2°41.466 -999 7 11.2 101750 100
2006-05-10 07:41:32 51°18.271 2°41.438 -999 7 11.2 101750 100
2006-05-10 07:41:37 51°18.282 2°41.414 -999 7 11.2 101750 100
2006-05-10 07:41:42 51°18.292 2°41.389 -999 5 11.2 101750 100
2006-05-10 07:41:47 51°18.302 2°41.367 -999 6 11.2 101750 100
2006-05-10 07:41:51 51°18.311 2°41.348 -999 4 11.2 101750 100
2006-05-10 07:41:57 51°18.324 2°41.32 -999 5 11.2 101750 100
2006-05-10 07:42:02 51°18.334 2°41.296 -999 3 11.2 101750 100
2006-05-10 07:42:07 51°18.345 2°41.273 -999 5 11.2 101740 100
2006-05-10 07:42:12 51°18.356 2°41.25 -999 4 11.2 101740 100
2006-05-10 07:42:17 51°18.366 2°41.227 -999 5 11.2 101750 100
2006-05-10 07:42:22 51°18.377 2°41.202 -999 4 11.2 101750 100
2006-05-10 07:42:27 51°18.388 2°41.179 -999 6 11.2 101750 100
2006-05-10 07:42:31 51°18.396 2°41.16 -999 4 11.2 101750 100
2006-05-10 07:42:37 51°18.409 2°41.133 -999 4 11.2 101750 100
2006-05-10 07:42:42 51°18.42 2°41.11 -999 4 11.2 101750 100
2006-05-10 07:42:46 51°18.428 2°41.091 -999 4 11.2 101740 100
2006-05-10 07:42:52 51°18.442 2°41.063 -999 6 11.2 101740 100
2006-05-10 07:42:57 51°18.452 2°41.04 -999 4 11.2 101750 100
2006-05-10 07:43:02 51°18.462 2°41.016 -999 5 11.2 101750 100
2006-05-10 07:43:06 51°18.471 2°40.998 -999 4 11.2 101750 100
2006-05-10 07:43:12 51°18.484 2°40.969 -999 5 11.2 101750 100
2006-05-10 07:43:17 51°18.495 2°40.946 -999 5 11.2 101740 100
2006-05-10 07:43:22 51°18.505 2°40.923 -999 5 11.2 101740 100
2006-05-10 07:43:26 51°18.514 2°40.905 -999 4 11.2 101750 100
2006-05-10 07:43:32 51°18.526 2°40.877 -999 4 11.2 101750 100
2006-05-10 07:43:37 51°18.537 2°40.854 -999 5 11.2 101750 100
2006-05-10 07:43:42 51°18.547 2°40.83 -999 6 11.2 101750 100
2006-05-10 07:43:46 51°18.556 2°40.812 -999 5 11.2 101750 100
2006-05-10 07:43:52 51°18.569 2°40.784 -999 6 11.2 101750 100
2006-05-10 07:43:57 51°18.58 2°40.76 -999 6 11.2 101750 100
2006-05-10 07:44:02 51°18.591 2°40.737 -999 7 11.2 101750 100
2006-05-10 07:44:07 51°18.602 2°40.715 -999 6 11.2 101750 100
2006-05-10 07:44:12 51°18.613 2°40.692 -999 7 11.2 101750 100
2006-05-10 07:44:17 51°18.624 2°40.67 -999 7 11.2 101750 100
2006-05-10 07:44:22 51°18.635 2°40.646 -999 6 11.2 101750 100
2006-05-10 07:44:25 51°18.641 2°40.633 -999 7 11.2 101750 100
2006-05-10 07:44:32 51°18.656 2°40.6 -999 6 11.2 101750 100
2006-05-10 07:44:36 51°18.665 2°40.582 -999 8 11.2 101750 100
2006-05-10 07:44:42 51°18.677 2°40.554 -999 8 11.2 101750 100
2006-05-10 07:44:46 51°18.686 2°40.536 -999 6 11.1 101750 100
2006-05-10 07:44:52 51°18.699 2°40.508 -999 6 11.1 101750 100
2006-05-10 07:44:56 51°18.707 2°40.491 -999 7 11.1 101760 100
2006-05-10 07:45:02 51°18.72 2°40.463 -999 9 11.1 101760 100
2006-05-10 07:45:06 51°18.729 2°40.444 -999 7 11.1 101750 100
2006-05-10 07:45:12 51°18.742 2°40.417 -999 6 11.1 101750 100
2006-05-10 07:45:16 51°18.751 2°40.398 -999 8 11.1 101750 100
2006-05-10 07:45:22 51°18.763 2°40.37 -999 8 11.1 101750 100
2006-05-10 07:45:27 51°18.774 2°40.347 -999 6 11.1 101760 100
2006-05-10 07:45:32 51°18.785 2°40.324 -999 10 11.1 101760 100
2006-05-10 07:45:36 51°18.794 2°40.306 -999 7 11.1 101750 100
2006-05-10 07:45:42 51°18.807 2°40.28 -999 10 11.1 101750 100
2006-05-10 07:45:47 51°18.818 2°40.255 -999 8 11.1 101750 100
2006-05-10 07:45:52 51°18.828 2°40.233 -999 8 11.1 101750 100
2006-05-10 07:45:57 51°18.839 2°40.21 -999 8 11.1 101750 100
2006-05-10 07:46:02 51°18.85 2°40.187 -999 8 11.1 101750 100
2006-05-10 07:46:06 51°18.859 2°40.169 -999 8 11.1 101750 100
2006-05-10 07:46:10 51°18.868 2°40.151 -999 9 11.1 101750 100
2006-05-10 07:46:17 51°18.883 2°40.12 -999 9 11.1 101760 100
2006-05-10 07:46:22 51°18.894 2°40.098 -999 10 11.1 101760 100
2006-05-10 07:46:26 51°18.901 2°40.079 -999 12 11.1 101750 100
2006-05-10 07:46:32 51°18.914 2°40.05 -999 10 11.1 101750 100
2006-05-10 07:46:36 51°18.921 2°40.03 -999 12 11.1 101750 100
2006-05-10 07:46:42 51°18.93 2°40.001 -999 12 11.1 101750 100
2006-05-10 07:46:46 51°18.937 2°39.98 -999 11 11.1 101750 100
2006-05-10 07:46:52 51°18.948 2°39.949 -999 11 11.1 101750 100
2006-05-10 07:46:56 51°18.954 2°39.93 -999 14 11.1 101750 100
2006-05-10 07:47:02 51°18.964 2°39.899 -999 12 11.1 101750 100
2006-05-10 07:47:06 51°18.971 2°39.879 -999 12 11.1 101750 100
2006-05-10 07:47:12 51°18.98 2°39.848 -999 11 11.1 101750 100
2006-05-10 07:47:16 51°18.987 2°39.828 -999 12 11.1 101750 100
2006-05-10 07:47:22 51°18.997 2°39.797 -999 14 11.1 101750 100
2006-05-10 07:47:26 51°19.003 2°39.777 -999 11 11.1 101750 100
2006-05-10 07:47:32 51°19.014 2°39.746 -999 11 11.1 101750 100
2006-05-10 07:47:36 51°19.02 2°39.725 -999 10 11.1 101750 100
2006-05-10 07:47:42 51°19.03 2°39.695 -999 9 11.1 101750 100
2006-05-10 07:47:47 51°19.039 2°39.669 -999 11 11.1 101750 100
2006-05-10 07:47:52 51°19.047 2°39.644 -999 11 11.1 101750 100
2006-05-10 07:47:56 51°19.054 2°39.623 -999 11 11.1 101750 100
2006-05-10 07:48:02 51°19.064 2°39.593 -999 9 11.1 101750 100
2006-05-10 07:48:07 51°19.072 2°39.567 -999 10 11.1 101750 100
2006-05-10 07:48:12 51°19.08 2°39.542 -999 11 11.1 101750 100
2006-05-10 07:48:17 51°19.089 2°39.516 -999 10 11.1 101750 100
2006-05-10 07:48:22 51°19.097 2°39.491 -999 13 11.1 101750 100
2006-05-10 07:48:26 51°19.104 2°39.471 -999 11 11.1 101760 100
2006-05-10 07:48:30 51°19.11 2°39.45 -999 10 11.1 101760 100
2006-05-10 07:48:37 51°19.122 2°39.414 -999 11 11.1 101760 100
2006-05-10 07:48:42 51°19.13 2°39.388 -999 9 11.1 101760 100
2006-05-10 07:48:46 51°19.137 2°39.368 -999 9 11.1 101750 100
2006-05-10 07:48:52 51°19.146 2°39.337 -999 11 11.1 101750 100
2006-05-10 07:48:57 51°19.154 2°39.311 -999 10 11.1 101760 100
2006-05-10 07:49:02 51°19.162 2°39.285 -999 13 11.1 101760 100
2006-05-10 07:49:06 51°19.169 2°39.265 -999 10 11.1 101750 100
2006-05-10 07:49:12 51°19.178 2°39.234 -999 13 11.1 101750 100
2006-05-10 07:49:17 51°19.187 2°39.208 -999 9 11.1 101750 100
2006-05-10 07:49:22 51°19.194 2°39.183 -999 12 11.1 101750 100
2006-05-10 07:49:26 51°19.201 2°39.162 -999 11 11.1 101750 100
2006-05-10 07:49:32 51°19.211 2°39.131 -999 13 11.1 101750 100
2006-05-10 07:49:37 51°19.219 2°39.106 -999 10 11.1 101760 100
2006-05-10 07:49:42 51°19.228 2°39.08 -999 11 11.1 101760 100
2006-05-10 07:49:46 51°19.235 2°39.06 -999 13 11.1 101770 100
2006-05-10 07:49:52 51°19.245 2°39.03 -999 9 11.1 101770 100
2006-05-10 07:49:57 51°19.253 2°39.004 -999 10 11 101750 100
2006-05-10 07:50:02 51°19.261 2°38.978 -999 13 11 101750 100
2006-05-10 07:50:07 51°19.269 2°38.952 -999 12 11.1 101760 100
2006-05-10 07:50:12 51°19.277 2°38.926 -999 9 11.1 101760 100
2006-05-10 07:50:17 51°19.284 2°38.9 -999 12 11.1 101760 100
2006-05-10 07:50:22 51°19.293 2°38.874 -999 12 11.1 101760 100
2006-05-10 07:50:25 51°19.297 2°38.859 -999 11 11.1 101760 100
2006-05-10 07:50:32 51°19.309 2°38.822 -999 10 11.1 101760 100
2006-05-10 07:50:36 51°19.315 2°38.801 -999 11 11.1 101760 100
2006-05-10 07:50:42 51°19.325 2°38.769 -999 12 11.1 101760 100
2006-05-10 07:50:46 51°19.331 2°38.748 -999 9 11 101750 100
2006-05-10 07:50:52 51°19.341 2°38.717 -999 12 11 101750 100
2006-05-10 07:50:56 51°19.348 2°38.697 -999 10 11.1 101760 100
2006-05-10 07:51:02 51°19.358 2°38.665 -999 9 11.1 101760 100
2006-05-10 07:51:06 51°19.364 2°38.644 -999 9 11 101760 100
2006-05-10 07:51:12 51°19.374 2°38.613 -999 10 11 101760 100
2006-05-10 07:51:16 51°19.38 2°38.592 -999 10 11 101760 100
2006-05-10 07:51:22 51°19.39 2°38.56 -999 7 11 101760 100
2006-05-10 07:51:27 51°19.398 2°38.533 -999 10 11 101760 100
2006-05-10 07:51:32 51°19.406 2°38.507 -999 10 11 101760 100
2006-05-10 07:51:36 51°19.412 2°38.487 -999 10 11 101760 100
2006-05-10 07:51:42 51°19.422 2°38.455 -999 7 11 101760 100
2006-05-10 07:51:47 51°19.43 2°38.428 -999 10 11 101760 100
2006-05-10 07:51:52 51°19.437 2°38.402 -999 9 11 101760 100
2006-05-10 07:51:57 51°19.444 2°38.374 -999 10 11 101760 100
2006-05-10 07:52:02 51°19.45 2°38.347 -999 12 11 101760 100
2006-05-10 07:52:06 51°19.456 2°38.325 -999 9 11 101760 100
2006-05-10 07:52:10 51°19.461 2°38.304 -999 10 11 101760 100
2006-05-10 07:52:17 51°19.47 2°38.267 -999 11 11 101760 100
2006-05-10 07:52:22 51°19.477 2°38.24 -999 7 11 101760 100
2006-05-10 07:52:26 51°19.482 2°38.218 -999 11 11 101750 100
2006-05-10 07:52:32 51°19.49 2°38.186 -999 9 11 101750 100
2006-05-10 07:52:36 51°19.496 2°38.164 -999 9 11 101770 100
2006-05-10 07:52:42 51°19.505 2°38.133 -999 8 11 101770 100
2006-05-10 07:52:46 51°19.51 2°38.112 -999 11 11 101770 100
2006-05-10 07:52:52 51°19.519 2°38.079 -999 10 11 101770 100
2006-05-10 07:52:56 51°19.524 2°38.058 -999 10 11 101760 100
2006-05-10 07:53:02 51°19.532 2°38.026 -999 11 11 101760 100
2006-05-10 07:53:06 51°19.538 2°38.005 -999 11 11 101760 100
2006-05-10 07:53:12 51°19.546 2°37.973 -999 11 11 101760 100
2006-05-10 07:53:16 51°19.552 2°37.951 -999 10 11 101750 100
2006-05-10 07:53:22 51°19.559 2°37.919 -999 11 11 101750 100
2006-05-10 07:53:26 51°19.565 2°37.898 -999 11 11 101760 100
2006-05-10 07:53:32 51°19.573 2°37.865 -999 12 11 101760 100
2006-05-10 07:53:36 51°19.578 2°37.843 -999 11 11 101760 100
2006-05-10 07:53:42 51°19.586 2°37.812 -999 9 11 101760 100
2006-05-10 07:53:47 51°19.593 2°37.785 -999 13 11 101760 100
2006-05-10 07:53:52 51°19.599 2°37.758 -999 10 11 101760 100
2006-05-10 07:53:56 51°19.604 2°37.736 -999 10 11 101760 100
2006-05-10 07:54:02 51°19.612 2°37.705 -999 10 11 101760 100
2006-05-10 07:54:07 51°19.619 2°37.678 -999 9 11 101760 100
2006-05-10 07:54:12 51°19.626 2°37.651 -999 8 11 101760 100
2006-05-10 07:54:17 51°19.632 2°37.625 -999 12 11 101760 100
2006-05-10 07:54:22 51°19.639 2°37.598 -999 8 11 101760 100
2006-05-10 07:54:26 51°19.644 2°37.577 -999 11 11 101770 100
2006-05-10 07:54:30 51°19.65 2°37.556 -999 8 11 101770 100
2006-05-10 07:54:37 51°19.66 2°37.519 -999 12 11 101760 100
2006-05-10 07:54:42 51°19.666 2°37.492 -999 9 11 101760 100
2006-05-10 07:54:46 51°19.672 2°37.471 -999 9 11 101760 100
2006-05-10 07:54:52 51°19.68 2°37.439 -999 8 11 101760 100
2006-05-10 07:54:57 51°19.687 2°37.413 -999 8 11 101760 100
2006-05-10 07:55:02 51°19.694 2°37.386 -999 9 11 101760 100
2006-05-10 07:55:06 51°19.699 2°37.364 -999 10 10.9 101760 100
2006-05-10 07:55:12 51°19.707 2°37.332 -999 11 10.9 101760 100
2006-05-10 07:55:17 51°19.714 2°37.306 -999 13 10.9 101760 100
2006-05-10 07:55:22 51°19.721 2°37.28 -999 10 10.9 101760 100
2006-05-10 07:55:26 51°19.726 2°37.258 -999 12 10.9 101750 100
2006-05-10 07:55:32 51°19.734 2°37.226 -999 10 10.9 101750 100
2006-05-10 07:55:37 51°19.741 2°37.2 -999 12 10.9 101750 100
2006-05-10 07:55:42 51°19.748 2°37.174 -999 7 10.9 101750 100
2006-05-10 07:55:46 51°19.754 2°37.153 -999 13 10.9 101760 100
2006-05-10 07:55:52 51°19.762 2°37.12 -999 11 10.9 101760 100
2006-05-10 07:55:57 51°19.768 2°37.094 -999 12 10.9 101760 100
2006-05-10 07:56:02 51°19.775 2°37.068 -999 11 10.9 101760 100
2006-05-10 07:56:07 51°19.782 2°37.041 -999 10 10.9 101760 100
2006-05-10 07:56:11 51°19.787 2°37.02 -999 10 11 101760 100
2006-05-10 07:56:17 51°19.796 2°36.99 -999 10 11 101760 100
2006-05-10 07:56:22 51°19.803 2°36.963 -999 10 10.9 101750 100
2006-05-10 07:56:26 51°19.809 2°36.942 -999 10 10.9 101760 100
2006-05-10 07:56:32 51°19.818 2°36.911 -999 13 10.9 101760 100
2006-05-10 07:56:37 51°19.825 2°36.885 -999 13 10.9 101760 100
2006-05-10 07:56:41 51°19.83 2°36.863 -999 15 10.9 101760 100
2006-05-10 07:56:47 51°19.839 2°36.831 -999 13 10.9 101760 100
2006-05-10 07:56:52 51°19.845 2°36.806 -999 12 10.9 101760 100
2006-05-10 07:56:56 51°19.85 2°36.784 -999 13 10.9 101760 100
2006-05-10 07:57:02 51°19.858 2°36.753 -999 15 10.9 101760 100
2006-05-10 07:57:07 51°19.865 2°36.726 -999 12 10.9 101760 99
2006-05-10 07:57:12 51°19.871 2°36.7 -999 14 10.9 101760 99
2006-05-10 07:57:17 51°19.878 2°36.674 -999 13 10.9 101760 99
2006-05-10 07:57:21 51°19.884 2°36.652 -999 13 10.9 101760 99
2006-05-10 07:57:27 51°19.892 2°36.621 -999 12 10.9 101760 99
2006-05-10 07:57:32 51°19.899 2°36.595 -999 14 10.9 101760 100
2006-05-10 07:57:36 51°19.905 2°36.574 -999 12 10.9 101770 99
2006-05-10 07:57:40 51°19.91 2°36.553 -999 15 10.9 101770 99
2006-05-10 07:57:46 51°19.919 2°36.521 -999 16 10.9 101760 99
2006-05-10 07:57:52 51°19.927 2°36.49 -999 15 10.9 101760 99
2006-05-10 07:57:56 51°19.932 2°36.469 -999 12 10.9 101760 99
2006-05-10 07:58:02 51°19.941 2°36.437 -999 13 10.9 101760 99
2006-05-10 07:58:06 51°19.947 2°36.416 -999 14 10.9 101760 99
2006-05-10 07:58:12 51°19.954 2°36.384 -999 15 10.9 101760 99
2006-05-10 07:58:16 51°19.96 2°36.363 -999 13 10.9 101760 99
2006-05-10 07:58:22 51°19.968 2°36.331 -999 15 10.9 101760 99
2006-05-10 07:58:26 51°19.974 2°36.311 -999 15 10.9 101770 99
2006-05-10 07:58:32 51°19.982 2°36.279 -999 14 10.9 101770 99
2006-05-10 07:58:36 51°19.988 2°36.258 -999 12 10.9 101760 99
2006-05-10 07:58:42 51°19.996 2°36.226 -999 11 10.9 101760 99
2006-05-10 07:58:46 51°20.001 2°36.206 -999 11 10.9 101760 99
2006-05-10 07:58:52 51°20.009 2°36.174 -999 14 10.9 101760 99
2006-05-10 07:58:56 51°20.015 2°36.153 -999 17 10.9 101760 99
2006-05-10 07:59:02 51°20.023 2°36.121 -999 12 10.9 101760 99
2006-05-10 07:59:06 51°20.029 2°36.1 -999 12 10.9 101760 99
2006-05-10 07:59:12 51°20.037 2°36.069 -999 11 10.9 101760 99
2006-05-10 07:59:16 51°20.043 2°36.047 -999 12 10.9 101760 99
2006-05-10 07:59:21 51°20.05 2°36.021 -999 11 10.9 101760 99
2006-05-10 07:59:27 51°20.059 2°35.989 -999 12 10.9 101760 99
2006-05-10 07:59:32 51°20.065 2°35.963 -999 11 10.9 101760 99
2006-05-10 07:59:37 51°20.072 2°35.936 -999 12 10.9 101770 99
2006-05-10 07:59:41 51°20.078 2°35.915 -999 11 10.9 101770 99
2006-05-10 07:59:47 51°20.086 2°35.883 -999 12 10.9 101760 99
2006-05-10 07:59:52 51°20.093 2°35.857 -999 10 10.9 101760 99
2006-05-10 07:59:56 51°20.098 2°35.836 -999 14 10.9 101760 99
2006-05-10 08:00:02 51°20.106 2°35.804 -999 12 10.9 101760 99
2006-05-10 08:00:06 51°20.112 2°35.783 -999 12 10.9 101750 99
2006-05-10 08:00:12 51°20.12 2°35.751 -999 12 10.9 101750 99
2006-05-10 08:00:16 51°20.126 2°35.73 -999 12 10.9 101760 99
2006-05-10 08:00:21 51°20.133 2°35.704 -999 10 10.9 101760 99
2006-05-10 08:00:27 51°20.141 2°35.673 -999 13 10.9 101760 99
2006-05-10 08:00:32 51°20.148 2°35.646 -999 11 10.9 101760 99
2006-05-10 08:00:37 51°20.155 2°35.62 -999 10 10.9 101760 99
2006-05-10 08:00:41 51°20.161 2°35.599 -999 14 10.9 101760 99
2006-05-10 08:00:47 51°20.169 2°35.566 -999 12 10.9 101760 99
2006-05-10 08:00:52 51°20.176 2°35.541 -999 11 10.9 101760 99
2006-05-10 08:00:56 51°20.181 2°35.52 -999 10 10.9 101760 99
2006-05-10 08:01:00 51°20.187 2°35.499 -999 11 10.9 101760 99
2006-05-10 08:01:06 51°20.196 2°35.467 -999 11 10.9 101760 99
2006-05-10 08:01:12 51°20.205 2°35.436 -999 12 10.9 101760 99
2006-05-10 08:01:16 51°20.21 2°35.415 -999 15 10.9 101770 99
2006-05-10 08:01:22 51°20.219 2°35.384 -999 14 10.9 101770 99
2006-05-10 08:01:26 51°20.223 2°35.363 -999 12 10.9 101760 99
2006-05-10 08:01:32 51°20.232 2°35.33 -999 15 10.9 101760 99
2006-05-10 08:01:36 51°20.238 2°35.309 -999 12 10.9 101760 99
2006-05-10 08:01:42 51°20.246 2°35.277 -999 12 10.9 101760 99
2006-05-10 08:01:46 51°20.252 2°35.256 -999 10 10.9 101770 99
2006-05-10 08:01:52 51°20.261 2°35.224 -999 12 10.9 101770 99
2006-05-10 08:01:56 51°20.266 2°35.202 -999 14 10.9 101760 99
2006-05-10 08:02:02 51°20.275 2°35.171 -999 13 10.9 101760 99
2006-05-10 08:02:06 51°20.281 2°35.149 -999 14 10.9 101760 99
2006-05-10 08:02:12 51°20.289 2°35.117 -999 11 10.9 101760 99
2006-05-10 08:02:17 51°20.297 2°35.091 -999 15 10.9 101760 99
2006-05-10 08:02:22 51°20.304 2°35.064 -999 11 10.9 101760 99
2006-05-10 08:02:25 51°20.309 2°35.047 -999 12 10.9 101760 99
2006-05-10 08:02:32 51°20.318 2°35.01 -999 13 10.9 101760 99
2006-05-10 08:02:36 51°20.324 2°34.989 -999 12 10.9 101760 99
2006-05-10 08:02:42 51°20.332 2°34.957 -999 14 10.9 101760 99
2006-05-10 08:02:46 51°20.338 2°34.935 -999 13 10.9 101760 99
2006-05-10 08:02:52 51°20.347 2°34.903 -999 14 10.9 101760 99
2006-05-10 08:02:56 51°20.353 2°34.881 -999 14 10.9 101760 99
2006-05-10 08:03:02 51°20.362 2°34.85 -999 10 10.9 101760 99
2006-05-10 08:03:06 51°20.369 2°34.829 -999 8 10.9 101760 99
2006-05-10 08:03:12 51°20.38 2°34.799 -999 10 10.9 101760 99
2006-05-10 08:03:17 51°20.389 2°34.775 -999 7 10.9 101760 99
2006-05-10 08:03:22 51°20.399 2°34.75 -999 11 10.9 101760 99
2006-05-10 08:03:25 51°20.406 2°34.736 -999 7 10.9 101770 99
2006-05-10 08:03:32 51°20.418 2°34.701 -999 -999 10.9 101770 99
2006-05-10 08:03:36 51°20.427 2°34.682 -999 6 10.9 101760 99
2006-05-10 08:03:42 51°20.439 2°34.653 -999 9 10.9 101760 99
2006-05-10 08:03:46 51°20.447 2°34.633 -999 8 10.9 101760 99
2006-05-10 08:03:52 51°20.459 2°34.605 -999 7 10.9 101760 99
2006-05-10 08:03:56 51°20.467 2°34.586 -999 9 10.9 101760 99
2006-05-10 08:04:02 51°20.479 2°34.556 -999 10 10.9 101760 99
2006-05-10 08:04:06 51°20.486 2°34.536 -999 10 10.9 101760 99
2006-05-10 08:04:12 51°20.498 2°34.507 -999 7 10.9 101760 99
2006-05-10 08:04:17 51°20.508 2°34.482 -999 8 10.9 101760 99
2006-05-10 08:04:22 51°20.517 2°34.457 -999 6 10.9 101760 99
2006-05-10 08:04:25 51°20.523 2°34.442 -999 9 10.9 101760 99
2006-05-10 08:04:32 51°20.537 2°34.408 -999 9 10.9 101760 99
2006-05-10 08:04:36 51°20.545 2°34.389 -999 8 10.8 101760 99
2006-05-10 08:04:42 51°20.557 2°34.36 -999 8 10.8 101760 99
2006-05-10 08:04:46 51°20.566 2°34.342 -999 6 10.8 101760 99
2006-05-10 08:04:52 51°20.58 2°34.314 -999 7 10.8 101760 99
2006-05-10 08:04:57 51°20.592 2°34.293 -999 6 10.8 101760 99
2006-05-10 08:05:02 51°20.604 2°34.271 -999 5 10.8 101760 99
2006-05-10 08:05:05 51°20.611 2°34.258 -999 4 10.8 101760 99
2006-05-10 08:05:12 51°20.628 2°34.229 -999 4 10.8 101760 99
2006-05-10 08:05:16 51°20.638 2°34.212 -999 4 10.8 101760 99
2006-05-10 08:05:22 51°20.653 2°34.186 -999 6 10.8 101760 99
2006-05-10 08:05:26 51°20.662 2°34.169 -999 5 10.8 101760 99
2006-05-10 08:05:32 51°20.678 2°34.144 -999 4 10.8 101760 99
2006-05-10 08:05:36 51°20.687 2°34.127 -999 4 10.8 101760 99
2006-05-10 08:05:42 51°20.703 2°34.102 -999 5 10.8 101760 99
2006-05-10 08:05:46 51°20.712 2°34.084 -999 3 10.8 101770 99
2006-05-10 08:05:52 51°20.727 2°34.059 -999 5 10.8 101770 99
2006-05-10 08:05:57 51°20.739 2°34.037 -999 7 10.8 101770 99
2006-05-10 08:06:02 51°20.751 2°34.017 -999 7 10.8 101770 99
2006-05-10 08:06:05 51°20.759 2°34.003 -999 7 10.8 101760 99
2006-05-10 08:06:12 51°20.776 2°33.973 -999 7 10.8 101760 99
2006-05-10 08:06:16 51°20.786 2°33.957 -999 5 10.8 101760 99
2006-05-10 08:06:22 51°20.801 2°33.931 -999 5 10.8 101760 99
2006-05-10 08:06:26 51°20.811 2°33.915 -999 7 10.8 101760 99
2006-05-10 08:06:32 51°20.826 2°33.889 -999 5 10.8 101760 99
2006-05-10 08:06:36 51°20.837 2°33.872 -999 8 10.8 101760 99
2006-05-10 08:06:42 51°20.851 2°33.847 -999 6 10.8 101760 99
2006-05-10 08:06:46 51°20.861 2°33.829 -999 9 10.8 101760 99
2006-05-10 08:06:52 51°20.876 2°33.805 -999 4 10.8 101760 99
2006-05-10 08:06:57 51°20.889 2°33.784 -999 4 10.8 101760 99
2006-05-10 08:07:02 51°20.901 2°33.762 -999 7 10.8 101760 99
2006-05-10 08:07:05 51°20.909 2°33.75 -999 7 10.8 101760 99
2006-05-10 08:07:12 51°20.927 2°33.72 -999 6 10.8 101760 99
2006-05-10 08:07:16 51°20.937 2°33.704 -999 6 10.8 101770 99
2006-05-10 08:07:22 51°20.952 2°33.678 -999 8 10.8 101770 99
2006-05-10 08:07:26 51°20.962 2°33.661 -999 5 10.8 101760 99
2006-05-10 08:07:32 51°20.977 2°33.635 -999 3 10.8 101760 99